Time;durP1;ratioP1;P1;durP2;ratioP2;P2;SDS_P1;SDS_P2;PMS_P1;PMS_P2;Temp;Humidity;BMP_temperature;BMP_pressure;BME280_temperature;BME280_humidity;BME280_pressure;Samples;Min_cycle;Max_cycle;Signal;HPM_P1;HPM_P2
2024/01/08 00:00:48;;;;;;;0.20;0.20;;;;;;;-4.11;100.00;97235.03;6134087;23;20021;-79
2024/01/08 00:03:33;;;;;;;0.20;0.20;;;;;;;-4.15;100.00;97228.41;6135787;23;20029;-78
2024/01/08 00:06:19;;;;;;;0.20;0.20;;;;;;;-4.12;100.00;97230.78;6137623;23;20029;-77
2024/01/08 00:09:05;;;;;;;0.20;0.20;;;;;;;-3.99;100.00;97237.34;6134974;23;20104;-77
2024/01/08 00:11:51;;;;;;;0.20;0.20;;;;;;;-4.03;100.00;97237.78;6137632;23;20067;-78
2024/01/08 00:14:39;;;;;;;0.20;0.20;;;;;;;-3.94;100.00;97232.53;6139090;23;20025;-79
2024/01/08 00:17:24;;;;;;;0.10;0.10;;;;;;;-3.81;100.00;97237.47;6137710;23;20053;-77
2024/01/08 00:20:11;;;;;;;0.20;0.20;;;;;;;-3.97;100.00;97231.97;6139329;23;20017;-78
2024/01/08 00:22:57;;;;;;;0.20;0.20;;;;;;;-3.94;100.00;97229.91;6138097;23;20128;-77
2024/01/08 00:25:43;;;;;;;0.20;0.20;;;;;;;-3.94;100.00;97229.91;6138147;23;20029;-79
2024/01/08 00:28:29;;;;;;;0.30;0.30;;;;;;;-4.00;100.00;97229.66;6138798;23;20052;-78
2024/01/08 00:31:15;;;;;;;0.30;0.30;;;;;;;-3.95;100.00;97222.22;6136972;23;20052;-77
2024/01/08 00:34:00;;;;;;;0.30;0.30;;;;;;;-3.87;100.00;97227.56;6137953;23;20025;-78
2024/01/08 00:36:46;;;;;;;0.30;0.30;;;;;;;-3.97;100.00;97224.13;6137803;23;20051;-78
2024/01/08 00:39:32;;;;;;;0.30;0.30;;;;;;;-3.96;100.00;97220.56;6137808;23;20341;-78
2024/01/08 00:42:18;;;;;;;0.20;0.20;;;;;;;-3.74;100.00;97233.31;6138597;23;20033;-77
2024/01/08 00:45:05;;;;;;;0.28;0.28;;;;;;;-3.84;100.00;97224.66;6138512;23;20290;-76
2024/01/08 00:47:50;;;;;;;0.20;0.20;;;;;;;-4.01;100.00;97231.44;6137233;23;20052;-78
2024/01/08 00:50:36;;;;;;;0.30;0.30;;;;;;;-4.05;100.00;97235.28;6138572;23;20088;-77
2024/01/08 00:53:22;;;;;;;0.20;0.20;;;;;;;-3.93;100.00;97228.13;6138475;23;20029;-78
2024/01/08 00:56:08;;;;;;;0.20;0.20;;;;;;;-3.87;100.00;97237.22;6139340;23;20025;-78
2024/01/08 00:58:56;;;;;;;0.25;0.25;;;;;;;-3.77;100.00;97231.00;6137926;23;20029;-76
2024/01/08 01:01:41;;;;;;;0.30;0.30;;;;;;;-3.77;100.00;97224.94;6137252;23;20025;-77
2024/01/08 01:04:27;;;;;;;0.20;0.20;;;;;;;-3.90;100.00;97232.25;6138584;23;20021;-76
2024/01/08 01:07:13;;;;;;;0.20;0.20;;;;;;;-4.13;100.00;97219.47;6138899;23;20022;-77
2024/01/08 01:09:59;;;;;;;0.22;0.22;;;;;;;-3.95;100.00;97237.91;6138183;23;20445;-76
2024/01/08 01:12:45;;;;;;;0.20;0.20;;;;;;;-3.93;100.00;97233.34;6138019;23;20941;-77
2024/01/08 01:15:31;;;;;;;0.20;0.20;;;;;;;-3.95;100.00;97228.28;6138926;23;20483;-77
2024/01/08 01:18:17;;;;;;;0.20;0.20;;;;;;;-3.94;100.00;97231.72;6138497;23;20048;-78
2024/01/08 01:21:04;;;;;;;0.22;0.22;;;;;;;-4.05;100.00;97234.44;6138316;23;20026;-77
2024/01/08 01:23:51;;;;;;;0.30;0.30;;;;;;;-3.98;100.00;97225.09;6136891;23;20055;-76
2024/01/08 01:26:37;;;;;;;0.30;0.30;;;;;;;-3.91;100.00;97226.19;6139413;23;20072;-77
2024/01/08 01:29:22;;;;;;;0.30;0.30;;;;;;;-3.96;100.00;97226.63;6138559;23;20562;-76
2024/01/08 01:32:08;;;;;;;0.30;0.30;;;;;;;-3.85;100.00;97230.88;6136548;23;20408;-77
2024/01/08 01:34:54;;;;;;;0.20;0.20;;;;;;;-4.17;100.00;97233.78;6137878;23;20017;-78
2024/01/08 01:37:42;;;;;;;0.30;0.30;;;;;;;-3.99;100.00;97228.69;6139559;23;20045;-78
2024/01/08 01:40:28;;;;;;;0.20;0.20;;;;;;;-4.21;100.00;97230.59;6137859;23;20025;-77
2024/01/08 01:43:25;;;;;;;0.30;0.30;;;;;;;-4.07;100.00;97231.16;6136542;23;20032;-78
2024/01/08 01:46:25;;;;;;;0.20;0.20;;;;;;;-4.18;100.00;97218.25;6138214;23;20643;-76
2024/01/08 01:49:22;;;;;;;0.30;0.30;;;;;;;-4.08;100.00;97230.34;6138192;23;20036;-78
2024/01/08 01:52:09;;;;;;;0.20;0.20;;;;;;;-4.19;100.00;97222.66;6137575;23;20025;-76
2024/01/08 01:54:55;;;;;;;0.20;0.20;;;;;;;-4.33;100.00;97216.03;6138002;23;20022;-77
2024/01/08 01:57:43;;;;;;;0.30;0.30;;;;;;;-4.22;100.00;97225.53;6137321;23;20511;-78
2024/01/08 02:00:29;;;;;;;0.20;0.20;;;;;;;-4.22;100.00;97234.19;6136474;23;20067;-78
2024/01/08 02:03:16;;;;;;;0.20;0.20;;;;;;;-4.15;100.00;97231.84;6138269;23;20018;-75
2024/01/08 02:06:08;;;;;;;0.20;0.20;;;;;;;-4.20;100.00;97231.47;6137495;23;20028;-76
2024/01/08 02:08:57;;;;;;;0.22;0.22;;;;;;;-4.14;100.00;97230.06;6136609;23;20712;-76
2024/01/08 02:11:44;;;;;;;0.30;0.30;;;;;;;-3.98;100.00;97225.91;6137427;23;20531;-77
2024/01/08 02:14:29;;;;;;;0.20;0.20;;;;;;;-3.90;100.00;97234.84;6137907;23;20025;-77
2024/01/08 02:17:15;;;;;;;0.20;0.20;;;;;;;-3.68;100.00;97234.56;6136878;23;20021;-78
2024/01/08 02:20:02;;;;;;;0.20;0.20;;;;;;;-3.78;100.00;97231.97;6137181;23;20549;-78
2024/01/08 02:22:48;;;;;;;0.20;0.20;;;;;;;-3.75;100.00;97236.06;6136690;23;20029;-78
2024/01/08 02:25:33;;;;;;;0.20;0.20;;;;;;;-3.74;100.00;97233.31;6137387;23;20045;-78
2024/01/08 02:28:19;;;;;;;0.25;0.25;;;;;;;-3.99;100.00;97226.88;6137185;23;20057;-77
2024/01/08 02:31:05;;;;;;;0.30;0.30;;;;;;;-4.00;100.00;97233.09;6136186;23;20109;-77
2024/01/08 02:33:51;;;;;;;0.25;0.25;;;;;;;-4.10;100.00;97226.22;6136476;23;20028;-76
2024/01/08 02:36:37;;;;;;;0.20;0.20;;;;;;;-4.09;100.00;97233.09;6137498;23;20026;-77
2024/01/08 02:39:23;;;;;;;0.20;0.20;;;;;;;-4.01;100.00;97231.44;6135774;23;20334;-77
2024/01/08 02:42:09;;;;;;;0.20;0.20;;;;;;;-3.99;100.00;97236.53;6137168;23;20025;-78
2024/01/08 02:44:56;;;;;;;0.28;0.28;;;;;;;-4.13;100.00;97242.16;6136787;23;20424;-76
2024/01/08 02:47:41;;;;;;;0.20;0.20;;;;;;;-4.21;100.00;97235.00;6135881;23;20262;-78
2024/01/08 02:50:27;;;;;;;0.20;0.20;;;;;;;-4.24;100.00;97240.53;6136496;23;20021;-77
2024/01/08 02:53:13;;;;;;;0.30;0.30;;;;;;;-4.26;100.00;97232.00;6135260;23;20057;-77
2024/01/08 02:55:59;;;;;;;0.20;0.20;;;;;;;-4.31;100.00;97249.88;6136642;23;20053;-77
2024/01/08 02:58:47;;;;;;;0.20;0.20;;;;;;;-4.17;100.00;97232.97;6136251;23;20893;-78
2024/01/08 03:01:33;;;;;;;0.30;0.30;;;;;;;-4.06;100.00;97235.41;6135992;23;20457;-77
2024/01/08 03:04:19;;;;;;;0.20;0.20;;;;;;;-3.97;100.00;97234.59;6136528;23;20029;-76
2024/01/08 03:07:05;;;;;;;0.20;0.20;;;;;;;-3.99;100.00;97239.13;6136773;23;20025;-77
2024/01/08 03:09:51;;;;;;;0.20;0.20;;;;;;;-4.25;100.00;97238.88;6135038;23;20029;-77
2024/01/08 03:12:37;;;;;;;0.30;0.30;;;;;;;-4.07;100.00;97244.22;6137014;23;20025;-77
2024/01/08 03:15:25;;;;;;;0.20;0.20;;;;;;;-3.97;100.00;97239.81;6137241;23;20056;-77
2024/01/08 03:18:11;;;;;;;0.30;0.30;;;;;;;-4.18;100.00;97229.53;6136135;23;20025;-76
2024/01/08 03:20:57;;;;;;;0.30;0.30;;;;;;;-3.97;100.00;97237.19;6136951;23;20413;-77
2024/01/08 03:23:42;;;;;;;0.30;0.30;;;;;;;-3.89;100.00;97239.97;6136748;23;20029;-78
2024/01/08 03:26:28;;;;;;;0.20;0.20;;;;;;;-4.01;100.00;97247.13;6137129;23;20025;-78
2024/01/08 03:29:14;;;;;;;0.20;0.20;;;;;;;-4.05;100.00;97242.28;6139304;23;20108;-77
2024/01/08 03:32:02;;;;;;;0.30;0.30;;;;;;;-4.04;100.00;97233.50;6135413;23;20041;-76
2024/01/08 03:34:49;;;;;;;0.20;0.20;;;;;;;-3.88;100.00;97240.78;6136850;23;20032;-77
2024/01/08 03:37:35;;;;;;;0.20;0.20;;;;;;;-3.92;100.00;97224.53;6136884;23;20061;-77
2024/01/08 03:40:21;;;;;;;0.30;0.30;;;;;;;-3.82;100.00;97242.84;6137234;23;20025;-77
2024/01/08 03:43:07;;;;;;;0.20;0.20;;;;;;;-4.03;100.00;97235.16;6136498;23;20025;-77
2024/01/08 03:45:53;;;;;;;0.20;0.20;;;;;;;-3.94;100.00;97231.72;6136145;23;20021;-78
2024/01/08 03:48:39;;;;;;;0.22;0.22;;;;;;;-3.74;100.00;97235.94;6135647;23;20025;-78
2024/01/08 03:51:24;;;;;;;0.28;0.28;;;;;;;-3.88;100.00;97239.00;6136784;23;20097;-77
2024/01/08 03:54:11;;;;;;;0.20;0.20;;;;;;;-3.96;100.00;97244.09;6135724;23;20104;-76
2024/01/08 03:56:57;;;;;;;0.20;0.20;;;;;;;-4.16;100.00;97245.06;6136472;23;20056;-77
2024/01/08 03:59:43;;;;;;;0.20;0.20;;;;;;;-4.15;100.00;97238.88;6136575;23;20100;-78
2024/01/08 04:02:29;;;;;;;0.20;0.20;;;;;;;-4.18;100.00;97250.44;6135190;23;20032;-78
2024/01/08 04:05:15;;;;;;;0.20;0.20;;;;;;;-4.10;100.00;97242.72;6137154;23;20064;-78
2024/01/08 04:08:01;;;;;;;0.20;0.20;;;;;;;-4.07;100.00;97236.38;6135748;23;20036;-77
2024/01/08 04:10:47;;;;;;;0.20;0.20;;;;;;;-4.07;100.00;97231.97;6136073;23;20022;-76
2024/01/08 04:13:32;;;;;;;0.20;0.20;;;;;;;-4.24;100.00;97238.72;6136787;23;20884;-76
2024/01/08 04:16:18;;;;;;;0.20;0.20;;;;;;;-4.36;100.00;97252.06;6137740;23;20029;-76
2024/01/08 04:19:04;;;;;;;0.20;0.20;;;;;;;-4.22;100.00;97247.25;6136028;23;20029;-76
2024/01/08 04:21:50;;;;;;;0.30;0.30;;;;;;;-4.33;100.00;97230.91;6135763;23;20049;-77
2024/01/08 04:24:36;;;;;;;0.20;0.20;;;;;;;-4.19;100.00;97242.75;6136611;23;20022;-78
2024/01/08 04:27:22;;;;;;;0.20;0.20;;;;;;;-4.23;100.00;97253.44;6135740;23;20468;-76
2024/01/08 04:30:08;;;;;;;0.20;0.20;;;;;;;-4.10;100.00;97240.13;6136178;23;20346;-77
2024/01/08 04:32:54;;;;;;;0.30;0.30;;;;;;;-4.07;100.00;97242.44;6134844;23;20088;-77
2024/01/08 04:35:40;;;;;;;0.20;0.20;;;;;;;-4.28;100.00;97244.34;6137210;23;20026;-78
2024/01/08 04:38:26;;;;;;;0.30;0.30;;;;;;;-4.22;100.00;97244.63;6136468;23;20030;-78
2024/01/08 04:41:19;;;;;;;0.20;0.20;;;;;;;-4.28;100.00;97244.34;6136779;23;20462;-77
2024/01/08 04:44:05;;;;;;;0.20;0.20;;;;;;;-4.31;100.00;97255.91;6136237;23;20017;-77
2024/01/08 04:46:51;;;;;;;0.20;0.20;;;;;;;-4.24;100.00;97250.97;6136104;23;20021;-77
2024/01/08 04:49:37;;;;;;;0.20;0.20;;;;;;;-4.25;100.00;97250.16;6136917;23;20025;-78
2024/01/08 04:52:23;;;;;;;0.20;0.20;;;;;;;-4.15;100.00;97257.16;6136402;23;20026;-78
2024/01/08 04:55:09;;;;;;;0.20;0.20;;;;;;;-4.21;100.00;97253.31;6136813;23;20356;-77
2024/01/08 04:57:55;;;;;;;0.30;0.30;;;;;;;-4.12;100.00;97249.06;6135678;23;20033;-77
2024/01/08 05:00:41;;;;;;;0.30;0.30;;;;;;;-4.26;100.00;97255.53;6137335;23;20021;-78
2024/01/08 05:03:26;;;;;;;0.20;0.20;;;;;;;-4.28;100.00;97260.88;6139651;23;20053;-77
2024/01/08 05:06:13;;;;;;;0.30;0.30;;;;;;;-4.04;100.00;97246.59;6141082;23;20033;-77
2024/01/08 05:09:00;;;;;;;0.20;0.20;;;;;;;-4.07;100.00;97259.91;6140740;23;20022;-77
2024/01/08 05:11:46;;;;;;;0.30;0.30;;;;;;;-4.30;100.00;97257.56;6141002;23;20025;-76
2024/01/08 05:14:35;;;;;;;0.20;0.20;;;;;;;-4.39;100.00;97260.19;6142331;23;20029;-76
2024/01/08 05:17:21;;;;;;;0.20;0.20;;;;;;;-4.33;100.00;97259.63;6140678;23;20401;-76
2024/01/08 05:20:09;;;;;;;0.30;0.30;;;;;;;-4.47;100.00;97260.03;6140974;23;20115;-76
2024/01/08 05:22:55;;;;;;;0.30;0.30;;;;;;;-4.42;100.00;97260.47;6140130;23;20028;-77
2024/01/08 05:25:41;;;;;;;0.20;0.20;;;;;;;-4.44;100.00;97267.59;6141831;23;20445;-77
2024/01/08 05:28:28;;;;;;;0.20;0.20;;;;;;;-4.31;100.00;97255.91;6140499;23;20112;-77
2024/01/08 05:31:14;;;;;;;0.20;0.20;;;;;;;-4.37;100.00;97260.84;6140043;23;20037;-77
2024/01/08 05:34:00;;;;;;;0.30;0.30;;;;;;;-4.42;100.00;97257.84;6140546;23;20460;-77
2024/01/08 05:36:46;;;;;;;0.20;0.20;;;;;;;-4.30;100.00;97259.34;6141042;23;20025;-76
2024/01/08 05:39:32;;;;;;;0.20;0.20;;;;;;;-4.27;100.00;97257.31;6140513;23;20088;-78
2024/01/08 05:42:18;;;;;;;0.20;0.20;;;;;;;-4.08;100.00;97266.94;6140789;23;20032;-77
2024/01/08 05:45:04;;;;;;;0.25;0.25;;;;;;;-3.89;100.00;97260.91;6140841;23;20096;-76
2024/01/08 05:47:54;;;;;;;0.20;0.20;;;;;;;-3.87;100.00;97252.91;6140137;23;20381;-77
2024/01/08 05:50:40;;;;;;;0.20;0.20;;;;;;;-3.96;100.00;97258.00;6140708;23;20021;-77
2024/01/08 05:53:26;;;;;;;0.30;0.30;;;;;;;-4.24;100.00;97257.03;6140386;23;20026;-78
2024/01/08 05:56:12;;;;;;;0.20;0.20;;;;;;;-4.19;100.00;97258.41;6140977;23;20407;-76
2024/01/08 05:58:59;;;;;;;0.20;0.20;;;;;;;-4.09;100.00;97265.28;6139710;23;20025;-77
2024/01/08 06:01:45;;;;;;;0.20;0.20;;;;;;;-4.10;100.00;97255.81;6139312;23;20022;-77
2024/01/08 06:04:31;;;;;;;0.20;0.20;;;;;;;-4.08;100.00;97266.13;6140516;23;20033;-77
2024/01/08 06:07:16;;;;;;;0.20;0.20;;;;;;;-4.10;100.00;97261.03;6139971;23;20582;-77
2024/01/08 06:10:03;;;;;;;0.20;0.20;;;;;;;-4.14;100.00;97264.03;6138968;23;20080;-79
2024/01/08 06:12:49;;;;;;;0.30;0.30;;;;;;;-4.18;100.00;97268.72;6140045;23;20021;-78
2024/01/08 06:15:35;;;;;;;0.28;0.28;;;;;;;-4.22;100.00;97276.00;6140527;23;20029;-78
2024/01/08 06:18:21;;;;;;;0.20;0.20;;;;;;;-4.34;100.00;97282.34;6140217;23;20028;-78
2024/01/08 06:21:07;;;;;;;0.20;0.20;;;;;;;-4.30;100.00;97268.03;6140060;23;20026;-78
2024/01/08 06:23:53;;;;;;;0.20;0.20;;;;;;;-4.13;100.00;97276.16;6140036;23;20337;-78
2024/01/08 06:26:39;;;;;;;0.20;0.20;;;;;;;-4.06;100.00;97272.84;6140329;23;20037;-79
2024/01/08 06:29:24;;;;;;;0.20;0.20;;;;;;;-3.94;100.00;97270.94;6140494;23;20553;-78
2024/01/08 06:32:10;;;;;;;0.28;0.28;;;;;;;-3.98;100.00;97272.16;6139402;23;20031;-78
2024/01/08 06:34:58;;;;;;;0.20;0.20;;;;;;;-3.96;100.00;97263.22;6140359;23;20025;-77
2024/01/08 06:37:44;;;;;;;0.20;0.20;;;;;;;-4.10;100.00;97268.03;6140570;23;20210;-79
2024/01/08 06:40:30;;;;;;;0.20;0.20;;;;;;;-4.17;100.00;97262.53;6140813;23;20704;-78
2024/01/08 06:43:16;;;;;;;0.20;0.20;;;;;;;-4.01;100.00;97257.59;6140273;23;20029;-78
2024/01/08 06:46:02;;;;;;;0.20;0.20;;;;;;;-4.05;100.00;97261.41;6140880;23;20404;-79
2024/01/08 06:48:48;;;;;;;0.20;0.20;;;;;;;-4.12;100.00;97260.34;6139207;23;20032;-78
2024/01/08 06:51:41;;;;;;;0.20;0.20;;;;;;;-4.15;100.00;97262.41;6140433;23;20021;-78
2024/01/08 06:54:27;;;;;;;0.20;0.20;;;;;;;-4.02;100.00;97244.66;6140795;23;20033;-78
2024/01/08 06:57:13;;;;;;;0.20;0.20;;;;;;;-3.89;100.00;97271.34;6139349;23;20025;-79
2024/01/08 06:59:59;;;;;;;0.30;0.30;;;;;;;-4.32;100.00;97269.94;6139346;23;20358;-79
2024/01/08 07:02:46;;;;;;;0.20;0.20;;;;;;;-4.27;100.00;97272.16;6109913;23;20030;-78
2024/01/08 07:05:32;;;;;;;0.20;0.20;;;;;;;-4.32;100.00;97263.91;6112175;23;20367;-79
2024/01/08 07:08:18;;;;;;;0.30;0.30;;;;;;;-4.14;100.00;97274.50;6110504;23;20033;-78
2024/01/08 07:11:06;;;;;;;0.20;0.20;;;;;;;-4.11;100.00;97279.47;6110343;23;20064;-77
2024/01/08 07:13:52;;;;;;;0.20;0.20;;;;;;;-4.03;100.00;97285.66;6111710;23;20533;-78
2024/01/08 07:16:38;;;;;;;0.20;0.20;;;;;;;-3.93;100.00;97285.66;6109164;23;20108;-77
2024/01/08 07:19:24;;;;;;;0.20;0.20;;;;;;;-4.13;100.00;97290.03;6109992;23;20076;-77
2024/01/08 07:22:10;;;;;;;0.20;0.20;;;;;;;-4.54;100.00;97283.25;6110789;23;20018;-77
2024/01/08 07:24:56;;;;;;;0.20;0.20;;;;;;;-4.42;100.00;97297.88;6111538;23;20049;-77
2024/01/08 07:27:42;;;;;;;0.30;0.30;;;;;;;-4.46;100.00;97299.09;6111385;23;20065;-77
2024/01/08 07:30:28;;;;;;;0.30;0.30;;;;;;;-4.68;100.00;97307.13;6111087;23;20076;-76
2024/01/08 07:33:14;;;;;;;0.30;0.30;;;;;;;-4.79;100.00;97298.44;6108221;23;20028;-76
2024/01/08 07:35:59;;;;;;;0.20;0.20;;;;;;;-4.82;100.00;97303.94;6111834;23;20056;-77
2024/01/08 07:38:45;;;;;;;0.20;0.20;;;;;;;-4.89;100.00;97295.00;6109921;23;20022;-77
2024/01/08 07:41:31;;;;;;;0.20;0.20;;;;;;;-4.73;100.00;97311.94;6090952;23;20022;-76
2024/01/08 07:44:17;;;;;;;0.20;0.20;;;;;;;-4.68;100.00;97297.50;6111911;23;20033;-77
2024/01/08 07:47:03;;;;;;;0.20;0.20;;;;;;;-4.65;100.00;97309.50;6110871;23;20464;-77
2024/01/08 07:49:49;;;;;;;0.30;0.30;;;;;;;-4.60;100.00;97315.94;6112093;23;20158;-77
2024/01/08 07:52:36;;;;;;;0.20;0.20;;;;;;;-4.50;100.00;97308.16;6111905;23;20060;-76
2024/01/08 07:55:22;;;;;;;0.30;0.30;;;;;;;-4.49;100.00;97304.59;6111592;23;20100;-77
2024/01/08 07:58:09;;;;;;;0.20;0.20;;;;;;;-4.32;100.00;97306.53;6110026;23;20029;-77
2024/01/08 08:00:59;;;;;;;0.25;0.25;;;;;;;-4.47;100.00;97307.88;6111084;23;20026;-77
2024/01/08 08:03:45;;;;;;;0.20;0.20;;;;;;;-4.41;100.00;97315.19;6111485;23;20026;-78
2024/01/08 08:06:31;;;;;;;0.20;0.20;;;;;;;-4.41;100.00;97303.91;6111067;23;20166;-77
2024/01/08 08:09:17;;;;;;;0.20;0.20;;;;;;;-4.56;100.00;97322.59;6111611;23;20413;-76
2024/01/08 08:12:03;;;;;;;0.20;0.20;;;;;;;-4.41;100.00;97327.44;6110666;23;20025;-77
2024/01/08 08:14:49;;;;;;;0.20;0.20;;;;;;;-4.47;100.00;97318.34;6111534;23;20026;-76
2024/01/08 08:17:35;;;;;;;0.30;0.30;;;;;;;-4.33;100.00;97315.34;6111394;23;20471;-77
2024/01/08 08:20:21;;;;;;;0.20;0.20;;;;;;;-4.37;100.00;97319.16;6111440;23;20085;-77
2024/01/08 08:23:07;;;;;;;0.20;0.20;;;;;;;-4.33;100.00;97327.59;6107814;23;20500;-76
2024/01/08 08:25:53;;;;;;;0.20;0.20;;;;;;;-4.36;100.00;97330.44;6108593;23;20022;-77
2024/01/08 08:28:39;;;;;;;0.20;0.20;;;;;;;-4.37;100.00;97324.41;6110928;23;20030;-76
2024/01/08 08:31:25;;;;;;;0.30;0.30;;;;;;;-4.31;100.00;97318.63;6111139;23;20049;-77
2024/01/08 08:34:11;;;;;;;0.35;0.35;;;;;;;-4.17;100.00;97321.84;6113202;23;20021;-76
2024/01/08 08:36:56;;;;;;;0.20;0.20;;;;;;;-4.06;100.00;97321.69;6113131;23;20025;-76
2024/01/08 08:39:42;;;;;;;0.20;0.20;;;;;;;-3.97;100.00;97324.34;6113300;23;20895;-77
2024/01/08 08:42:28;;;;;;;0.20;0.20;;;;;;;-3.97;100.00;97332.19;6114002;23;20021;-77
2024/01/08 08:45:17;;;;;;;0.20;0.20;;;;;;;-4.25;100.00;97344.25;6113213;23;20104;-77
2024/01/08 08:48:04;;;;;;;0.20;0.20;;;;;;;-4.27;100.00;97345.34;6113432;23;20435;-76
2024/01/08 08:50:50;;;;;;;0.25;0.25;;;;;;;-4.12;100.00;97349.22;6113719;23;20018;-76
2024/01/08 08:53:35;;;;;;;0.30;0.30;;;;;;;-4.02;100.00;97342.22;6070937;23;20093;-78
2024/01/08 08:56:21;;;;;;;0.20;0.20;;;;;;;-4.30;100.00;97343.81;6112881;23;20022;-77
2024/01/08 08:59:07;;;;;;;0.20;0.20;;;;;;;-4.11;100.00;97339.59;6113062;23;20709;-76
2024/01/08 09:01:54;;;;;;;0.25;0.25;;;;;;;-4.03;100.00;97331.91;6109016;23;20032;-77
2024/01/08 09:04:40;;;;;;;0.30;0.30;;;;;;;-4.20;100.00;97354.31;6113919;23;20212;-77
2024/01/08 09:07:26;;;;;;;0.20;0.20;;;;;;;-4.06;100.00;97355.69;6112401;23;20052;-78
2024/01/08 09:10:12;;;;;;;0.20;0.20;;;;;;;-4.01;100.00;97358.72;6113289;23;20543;-77
2024/01/08 09:12:58;;;;;;;0.20;0.20;;;;;;;-3.83;100.00;97364.94;6112728;23;20093;-78
2024/01/08 09:15:44;;;;;;;0.20;0.20;;;;;;;-4.10;100.00;97370.84;6113091;23;20646;-77
2024/01/08 09:18:30;;;;;;;0.20;0.20;;;;;;;-3.91;100.00;97367.41;6111462;23;20115;-77
2024/01/08 09:21:17;;;;;;;0.20;0.20;;;;;;;-3.97;100.00;97358.34;6113677;23;20137;-77
2024/01/08 09:24:05;;;;;;;0.20;0.20;;;;;;;-4.05;100.00;97355.53;6110896;23;20037;-78
2024/01/08 09:26:50;;;;;;;0.20;0.20;;;;;;;-3.88;100.00;97369.78;6111617;23;20026;-78
2024/01/08 09:29:36;;;;;;;0.22;0.22;;;;;;;-3.86;100.00;97372.25;6112739;23;20025;-78
2024/01/08 09:32:24;;;;;;;0.20;0.20;;;;;;;-3.70;100.00;97381.19;6110117;23;20053;-77
2024/01/08 09:35:10;;;;;;;0.20;0.20;;;;;;;-3.88;100.00;97369.78;6108407;23;20108;-79
2024/01/08 09:37:56;;;;;;;0.22;0.22;;;;;;;-3.38;100.00;97377.47;6111960;23;20025;-78
2024/01/08 09:40:42;;;;;;;0.30;0.30;;;;;;;-3.15;100.00;97376.19;6113523;23;20555;-79
2024/01/08 09:43:31;;;;;;;0.30;0.30;;;;;;;-1.24;100.00;97378.09;6112468;23;20126;-79
2024/01/08 09:46:28;;;;;;;0.55;0.40;;;;;;;1.57;88.06;97359.03;6113208;23;20022;-79
2024/01/08 09:49:15;;;;;;;0.50;0.40;;;;;;;2.48;61.91;97366.31;6112798;23;20053;-79
2024/01/08 09:52:01;;;;;;;0.70;0.40;;;;;;;3.40;59.76;97361.75;6113005;23;20379;-79
2024/01/08 09:54:48;;;;;;;0.55;0.40;;;;;;;4.30;49.02;97356.19;6074494;23;20026;-79
2024/01/08 09:57:34;;;;;;;0.60;0.50;;;;;;;5.07;45.54;97355.50;6109405;23;20018;-79
2024/01/08 10:00:21;;;;;;;0.52;0.40;;;;;;;4.95;48.57;97357.03;6111776;23;20350;-80
2024/01/08 10:03:06;;;;;;;0.52;0.40;;;;;;;3.31;45.91;97353.06;6110283;23;20053;-81
2024/01/08 10:05:52;;;;;;;0.60;0.40;;;;;;;3.43;46.89;97348.16;6112748;23;20025;-81
2024/01/08 10:08:38;;;;;;;0.30;0.30;;;;;;;4.22;47.65;97356.31;6112905;23;20495;-81
2024/01/08 10:11:26;;;;;;;0.63;0.40;;;;;;;6.20;44.29;97343.72;6113381;23;20022;-79
2024/01/08 10:14:12;;;;;;;0.60;0.40;;;;;;;7.40;42.88;97353.53;6113136;23;20846;-80
2024/01/08 10:16:58;;;;;;;0.55;0.43;;;;;;;6.95;38.67;97350.66;6112183;23;20026;-79
2024/01/08 10:19:44;;;;;;;0.47;0.40;;;;;;;8.71;34.78;97339.13;6112514;23;20109;-79
2024/01/08 10:22:30;;;;;;;0.60;0.40;;;;;;;7.63;36.95;97349.59;6111471;23;20112;-78
2024/01/08 10:25:22;;;;;;;0.38;0.35;;;;;;;6.18;36.34;97332.47;6112013;23;20025;-78
2024/01/08 10:28:09;;;;;;;0.60;0.40;;;;;;;5.66;39.32;97341.81;6109937;23;20026;-79
2024/01/08 10:30:56;;;;;;;0.60;0.40;;;;;;;7.65;36.69;97344.88;6111670;23;20029;-78
2024/01/08 10:33:43;;;;;;;0.50;0.40;;;;;;;7.22;36.44;97343.47;6110613;23;20544;-78
2024/01/08 10:36:32;;;;;;;0.40;0.40;;;;;;;7.20;37.15;97347.38;6112537;23;20026;-79
2024/01/08 10:39:20;;;;;;;0.50;0.40;;;;;;;7.48;35.35;97355.16;6113280;23;20036;-78
2024/01/08 10:42:06;;;;;;;0.43;0.40;;;;;;;6.71;35.19;97359.22;6112309;23;20026;-79
2024/01/08 10:44:52;;;;;;;0.35;0.32;;;;;;;7.33;35.86;97347.38;6112572;23;20022;-78
2024/01/08 10:47:49;;;;;;;0.40;0.40;;;;;;;7.14;34.13;97346.34;6110499;23;20022;-79
2024/01/08 10:50:38;;;;;;;0.30;0.30;;;;;;;9.72;34.70;97337.03;6112142;23;20064;-79
2024/01/08 10:53:44;;;;;;;0.50;0.40;;;;;;;11.12;28.90;97336.88;6111277;23;20026;-79
2024/01/08 10:56:31;;;;;;;0.40;0.40;;;;;;;9.90;28.46;97344.28;6112467;23;20413;-80
2024/01/08 10:59:23;;;;;;;0.50;0.40;;;;;;;11.33;33.43;97340.88;6110717;23;20029;-79
2024/01/08 11:02:14;;;;;;;0.40;0.40;;;;;;;12.73;30.42;97330.97;6109041;23;20021;-78
2024/01/08 11:05:02;;;;;;;0.30;0.30;;;;;;;9.72;29.69;97344.25;6110399;23;20116;-79
2024/01/08 11:07:50;;;;;;;0.30;0.30;;;;;;;9.89;29.63;97345.31;6112751;23;20026;-78
2024/01/08 11:10:36;;;;;;;0.40;0.40;;;;;;;10.00;28.25;97327.69;6113351;23;20033;-78
2024/01/08 11:13:21;;;;;;;0.40;0.40;;;;;;;10.88;28.29;97333.34;6112173;23;20026;-79
2024/01/08 11:16:08;;;;;;;0.30;0.30;;;;;;;12.33;29.62;97339.06;6131955;23;20025;-78
2024/01/08 11:19:20;;;;;;;0.30;0.30;;;;;;;11.77;26.28;97338.69;6111184;23;20026;-79
2024/01/08 11:22:10;;;;;;;0.30;0.30;;;;;;;9.56;27.81;97334.94;6112872;23;20021;-78
2024/01/08 11:24:57;;;;;;;0.40;0.40;;;;;;;11.38;26.57;97342.88;6111783;23;20025;-80
2024/01/08 11:27:43;;;;;;;0.30;0.30;;;;;;;12.30;27.03;97343.06;6110705;23;20025;-79
2024/01/08 11:30:29;;;;;;;0.40;0.40;;;;;;;10.30;25.57;97343.84;6110858;23;20018;-79
2024/01/08 11:33:30;;;;;;;0.28;0.28;;;;;;;8.60;27.09;97344.13;6112083;23;20014;-81
2024/01/08 11:36:20;;;;;;;;;;;;;;;9.41;26.90;97345.97;6111523;23;20027;-79
2024/01/08 11:39:13;;;;;;;0.30;0.30;;;;;;;12.50;26.23;97335.38;6111631;23;19988;-80
2024/01/08 11:41:59;;;;;;;0.30;0.30;;;;;;;13.65;25.47;97323.38;6109674;23;20667;-80
2024/01/08 11:44:44;;;;;;;0.20;0.20;;;;;;;13.02;23.89;97332.56;6109951;23;20531;-81
2024/01/08 11:47:32;;;;;;;0.20;0.20;;;;;;;15.45;22.26;97329.72;6111740;23;20104;-81
2024/01/08 11:50:18;;;;;;;0.30;0.30;;;;;;;15.44;23.43;97328.09;6109603;23;20037;-80
2024/01/08 11:53:05;;;;;;;0.30;0.30;;;;;;;15.38;22.08;97329.13;6112007;23;20046;-81
2024/01/08 11:55:52;;;;;;;0.30;0.30;;;;;;;15.18;21.92;97330.59;6111374;23;20369;-81
2024/01/08 11:58:38;;;;;;;0.20;0.20;;;;;;;13.45;24.05;97335.69;6108537;23;20029;-82
2024/01/08 12:01:24;;;;;;;0.30;0.30;;;;;;;12.36;23.25;97331.34;6121961;23;20079;-82
2024/01/08 12:04:09;;;;;;;0.30;0.30;;;;;;;13.59;25.01;97337.81;6137537;23;20025;-82
2024/01/08 12:06:55;;;;;;;0.38;0.38;;;;;;;14.57;23.74;97327.28;6138258;23;20080;-81
2024/01/08 12:09:42;;;;;;;0.30;0.30;;;;;;;15.85;23.08;97331.91;6138000;23;20025;-81
2024/01/08 12:12:29;;;;;;;0.20;0.20;;;;;;;15.21;23.46;97334.66;6138639;23;20382;-81
2024/01/08 12:15:16;;;;;;;0.30;0.30;;;;;;;14.01;22.94;97328.44;6139567;23;20028;-81
2024/01/08 12:18:02;;;;;;;0.30;0.30;;;;;;;16.17;22.37;97329.09;6139194;23;20025;-81
2024/01/08 12:20:49;;;;;;;0.30;0.30;;;;;;;16.51;18.48;97320.59;6139408;23;20053;-81
2024/01/08 12:23:36;;;;;;;0.28;0.28;;;;;;;14.85;22.69;97333.47;6137227;23;20120;-81
2024/01/08 12:26:22;;;;;;;0.30;0.30;;;;;;;13.84;21.36;97326.59;6140122;23;20396;-80
2024/01/08 12:29:08;;;;;;;0.47;0.40;;;;;;;13.48;22.75;97340.59;6140435;23;20396;-81
2024/01/08 12:31:59;;;;;;;0.30;0.30;;;;;;;13.64;23.50;97340.59;6140046;23;20021;-80
2024/01/08 12:34:45;;;;;;;0.30;0.30;;;;;;;13.91;20.08;97334.50;6138303;23;20051;-81
2024/01/08 12:37:32;;;;;;;0.40;0.40;;;;;;;15.23;22.06;97338.69;6139498;23;20029;-78
2024/01/08 12:40:19;;;;;;;0.30;0.30;;;;;;;16.44;22.09;97332.47;6139022;23;20099;-78
2024/01/08 12:43:05;;;;;;;0.40;0.40;;;;;;;14.87;20.46;97331.38;6139086;23;20029;-79
2024/01/08 12:45:51;;;;;;;0.30;0.30;;;;;;;15.37;21.92;97332.88;6138845;23;20025;-79
2024/01/08 12:48:37;;;;;;;0.20;0.20;;;;;;;10.97;22.14;97335.69;6139149;23;20025;-80
2024/01/08 12:51:23;;;;;;;0.30;0.30;;;;;;;12.80;24.84;97337.00;6139785;23;20108;-80
2024/01/08 12:54:08;;;;;;;0.30;0.30;;;;;;;12.79;23.77;97330.03;6139279;23;20448;-80
2024/01/08 12:56:54;;;;;;;0.20;0.20;;;;;;;12.85;22.78;97321.00;6138449;23;20101;-81
2024/01/08 12:59:52;;;;;;;0.20;0.20;;;;;;;10.23;24.52;97343.91;6139269;23;20021;-79